• Join FlightAware (Why Join?)
  • Login
  • US Flag 
 
04:46AM EST


 

Airport Tracker/Info


-or-


 

Live Flight TrackerFlight Track Log ✈ NSH918 ✈ 27-Apr-2012 ✈ KMDW - KHVN

Flight Track Log - Related Links

Times and Time Zones

All times are in EDT time to prevent confusion due to time zone crossing. See the NSH918 flight status page for this flight to view local times or setup timezone preferences in your user account.

Time Position Orientation Groundspeed Altitude Reporting Facility
EDT Latitude Longitude Course Direction KTS MPH feet Rate Location/Type
05:13PM 41.8000 -87.7333 90° East 157 181 1,500  Level Chicago TRACON
05:14PM 41.8000 -87.6833 79° East 221 254 3,700 2,100 Climbing Chicago TRACON
05:15PM 41.8167 -87.5667 93° East 269 310 5,600 2,460 Climbing Chicago TRACON
05:17PM 41.8083 -87.3831 101° East 280 322 10,900 2,820 Climbing Chicago Center
05:18PM 41.7894 -87.2556 101° East 316 364 13,600 2,760 Climbing Chicago Center
05:19PM 41.7700 -87.1169 93° East 353 406 16,500 2,700 Climbing Chicago Center
05:20PM 41.7653 -86.9781 89° East 365 420 19,100 2,460 Climbing Chicago Center
05:21PM 41.7664 -86.8331 72° East 370 426 21,500 7,260 Climbing Chicago Center
05:23PM 41.8367 -86.5433 71° East 406 467 41,000 1,800 Climbing Chicago Center
05:24PM 41.8767 -86.3881 74° East 418 481 26,900 -6,480 Descending Chicago Center
05:25PM 41.9119 -86.2275 86° East 436 502 28,100 1,080 Climbing Chicago Center
05:26PM 41.9214 -86.0483 84° East 455 524 29,100 1,140 Climbing Chicago Center
05:27PM 41.9347 -85.8633 85° East 479 551 30,400 1,440 Climbing Chicago Center
05:28PM 41.9458 -85.6811 85° East 492 566 32,000 1,500 Climbing Chicago Center
05:29PM 41.9564 -85.4992 86° East 492 566 33,400 1,440 Climbing Chicago Center
05:30PM 41.9686 -85.2672 84° East 512 589 35,200 1,620 Climbing Cleveland Center
05:31PM 41.9822 -85.0839 85° East 507 583 36,900 1,680 Climbing Cleveland Center
05:32PM 41.9933 -84.9028 84° East 496 571 38,600 1,320 Climbing Cleveland Center
05:34PM 42.0189 -84.5383 82° East 481 554 41,000 780 Climbing Cleveland Center
05:35PM 42.0378 -84.3522 83° East 494 568 41,000  Level Cleveland Center
05:36PM 42.0539 -84.1686 83° East 499 574 41,000  Level Cleveland Center
05:37PM 42.0722 -83.9792 83° East 499 574 41,000  Level Cleveland Center
05:38PM 42.0875 -83.8122 84° East 499 574 41,000  Level Cleveland Center
05:39PM 42.1011 -83.6225 81° East 499 574 41,000  Level Cleveland Center
05:40PM 42.1225 -83.4331 84° East 505 581 41,000  Level Cleveland Center
05:41PM 42.1375 -83.2461 84° East 505 581 41,000  Level Cleveland Center
05:42PM 42.1525 -83.0367 83° East 505 581 41,000  Level Cleveland Center
05:43PM 42.1692 -82.8439 84° East 505 581 41,000  Level Cleveland Center
05:44PM 42.1828 -82.6736 84° East 511 588 41,000  Level Cleveland Center
05:45PM 42.1964 -82.4806 84° East 516 594 41,000  Level Cleveland Center
05:46PM 42.2119 -82.2906 84° East 516 594 41,000  Level Cleveland Center
05:47PM 42.2275 -82.0833 84° East 516 594 41,000  Level Cleveland Center
05:48PM 42.2422 -81.8903 84° East 516 594 41,000  Level Cleveland Center
05:49PM 42.2567 -81.6997 86° East 516 594 41,000  Level Cleveland Center
05:50PM 42.2667 -81.5092 84° East 516 594 41,000  Level Cleveland Center
05:51PM 42.2806 -81.3381 85° East 517 595 41,000  Level Cleveland Center
05:52PM 42.2922 -81.1444 85° East 517 595 41,000  Level Cleveland Center
05:53PM 42.3053 -80.9539 86° East 517 595 41,000  Level Cleveland Center
05:54PM 42.3142 -80.7628 85° East 512 589 41,000  Level Cleveland Center
05:55PM 42.3269 -80.5747 85° East 512 589 41,000  Level Cleveland Center
05:56PM 42.3392 -80.3614 86° East 520 598 41,000  Level Cleveland Center
05:57PM 42.3489 -80.1617 85° East 520 598 41,000  Level Cleveland Center
05:58PM 42.3606 -79.9706 85° East 520 598 41,000  Level Cleveland Center
05:59PM 42.3719 -79.7767 86° East 515 593 41,000  Level Cleveland Center
06:00PM 42.3808 -79.5881 86° East 515 593 41,000  Level Cleveland Center
06:01PM 42.3917 -79.3967 87° East 515 593 41,000  Level Cleveland Center
06:02PM 42.4000 -79.2083 87° East 510 587 41,000  Level Cleveland Center
06:03PM 42.4081 -79.0197 86° East 510 587 41,000  Level Cleveland Center
06:04PM 42.4178 -78.8283 86° East 510 587 41,000  Level Cleveland Center
06:05PM 42.4272 -78.6394 87° East 510 587 41,000  Level Cleveland Center
06:06PM 42.4344 -78.4536 87° East 498 573 41,000  Level Cleveland Center
06:07PM 42.4411 -78.2619 87° East 498 573 41,000  Level Cleveland Center
06:08PM 42.4475 -78.0789 87° East 498 573 41,000 -720 Level Cleveland Center
06:09PM 42.4536 -77.8872 88° East 498 573 39,600 -1,440 Descending Cleveland Center
06:10PM 42.4578 -77.7097 87° East 504 580 38,200 -1,440 Descending Cleveland Center
06:11PM 42.4653 -77.5122 87° East 514 592 36,800 -1,560 Descending Cleveland Center
06:13PM 42.4800 -77.0972 88° East 554 638 33,600 -1,260 Descending Boston Center
06:14PM 42.4847 -76.8722 88° East 548 631 33,000 -300 Descending Boston Center
06:15PM 42.4906 -76.6669 90° East 543 625 33,000  Level Boston Center
06:16PM 42.4917 -76.4669 103° East 543 625 33,000 -240 Level Boston Center
06:17PM 42.4569 -76.2592 107° East 548 631 32,600 -1,080 Descending Boston Center
06:18PM 42.4114 -76.0594 105° East 548 631 30,900 -1,560 Descending Boston Center
06:19PM 42.3700 -75.8547 106° East 555 639 29,500 -1,500 Descending Boston Center
06:20PM 42.3258 -75.6531 105° East 562 647 28,000 -840 Descending Boston Center
06:21PM 42.2892 -75.4686 105° East 557 641 27,900 -900 Descending Boston Center
06:22PM 42.2483 -75.2703 108° East 557 641 26,300 -1,680 Descending Boston Center
06:23PM 42.2031 -75.0775 100° East 530 610 24,600 -1,800 Descending Boston Center
06:24PM 42.1797 -74.9056 84° East 493 567 22,700 -2,220 Descending Boston Center
06:25PM 42.1917 -74.7408 86° East 454 522 20,200 -2,460 Descending Boston Center
06:26PM 42.2008 -74.5814 106° East 437 503 17,800 -1,620 Descending Boston Center
06:27PM 42.1703 -74.4403 118° Southeast 395 455 17,000 -420 Descending Boston Center
06:28PM 42.1222 -74.3183 121° Southeast 400 460 17,000 -720 Level Boston Center
06:29PM 42.0578 -74.1767 124° Southeast 406 467 15,600 -1,380 Descending Boston Center
06:30PM 41.9969 -74.0547 124° Southeast 401 461 14,300 -1,200 Descending Boston Center
06:31PM 41.9444 -73.9500 123° Southeast 388 447 13,200 -720 Descending Boston Center
06:32PM 41.8814 -73.8203 125° Southeast 388 447 12,900 -660 Descending Boston Center
06:33PM 41.8264 -73.7133 130° Southeast 388 447 11,900 -1,260 Descending Boston Center
06:34PM 41.7567 -73.6006 159° South 366 421 10,400 -1,620 Descending Boston Center
06:35PM 41.6819 -73.5631 155° Southeast 316 364 8,700 -1,740 Descending Boston Center
06:38PM 41.5000 -73.4500 129° Southeast 300 345 4,700 -1,440 Descending New York TRACON
06:39PM 41.4500 -73.3667 118° Southeast 284 327 4,000 -420 Descending New York TRACON
06:40PM 41.4167 -73.2833 114° Southeast 258 297 4,000 -480 Level New York TRACON
06:41PM 41.3833 -73.1833 118° Southeast 280 322 3,100 -480 Descending New York TRACON
06:42PM 41.3500 -73.1000 124° Southeast 254 292 3,000 -60 Descending New York TRACON
06:43PM 41.3167 -73.0333 143° Southeast 215 247 3,000 -240 Level New York TRACON
06:44PM 41.2667 -72.9833 143° Southeast 201 231 2,600 -600 Descending New York TRACON
06:45PM 41.2333 -72.9500 90° East 183 211 1,800 -840 Descending New York TRACON
06:46PM 41.2333 -72.9000 90° East 161 185 1,000 -840 Descending New York TRACON